Latest Coastal Weather Observations for Holmes Reef

IDQ60701

Issued at 4:12 pm EST Thursday 29 January 2015 (issued every 10 minutes, with the page automatically refreshed every 10 minutes)

About coastal observations | Map of coastal stations | Coastal observations for QLD | Marine services | Other Formats
Station Details ID: 200732 Name: HOLMES REEF Lat: -16.47 Lon: 147.87 Height: 1.9 m
Data from the previous 72 hours. | See also: Recent months at Holmes Reef
Date/Time
EST
Temp

°C
Wind Pressure Rain
since 9am
mm
Weather Cloud Vis
km
Sea
Height
m
Swell
Dir
 
Speed
knots
Gust
knots
hPa Trend Height
m
Period
s
Dir
29/04:00pm 29.4 WNW 13 15 1001.8 - - - - - - - - -
29/03:30pm 29.0 WNW 14 15 1001.9 - - - - - - - - -
29/03:15pm 29.1 WNW 15 - 1001.6 - - - - - - - - -
29/03:00pm 29.0 NW 15 16 1001.9 - - - - - - - - -
29/02:30pm 29.0 WNW 14 15 1002.2 - - - - - - - - -
29/02:15pm 29.1 WNW 12 - 1002.1 - - - - - - - - -
29/02:00pm 29.0 WNW 12 14 1002.5 - - - - - - - - -
29/01:30pm 29.1 WNW 10 12 1002.9 - - - - - - - - -
29/01:15pm 29.1 WNW 11 - 1002.7 - - - - - - - - -
29/01:00pm 29.1 WNW 10 12 1003.1 - - - - - - - - -
29/12:30pm 29.2 WNW 10 11 1003.4 - - - - - - - - -
29/12:15pm 29.2 WNW 10 - 1003.2 - - - - - - - - -
29/12:00pm 29.1 WNW 10 12 1003.6 - - - - - - - - -
29/11:30am 29.1 WNW 11 13 1003.8 - - - - - - - - -
29/11:15am 29.1 WNW 11 - 1003.4 - - - - - - - - -
29/11:00am 29.1 WNW 10 12 1003.6 - - - - - - - - -
29/10:30am 29.1 WNW 11 13 1003.8 - - - - - - - - -
29/10:15am 29.0 WNW 11 - 1003.4 - - - - - - - - -
29/10:00am 29.0 WNW 12 13 1003.6 - - - - - - - - -
29/09:30am 29.0 WNW 13 15 1003.3 - - - - - - - - -
29/09:15am 29.0 NW 13 - 1002.9 - - - - - - - - -
29/09:00am 29.0 WNW 13 16 1003.2 - - - - - - - - -
29/08:30am 29.1 WNW 14 17 1003.0 - - - - - - - - -
29/08:15am 29.2 WNW 15 - 1002.5 - - - - - - - - -
29/08:00am 29.3 WNW 14 16 1002.8 - - - - - - - - -
29/07:30am 29.3 WNW 15 17 1002.7 - - - - - - - - -
29/07:15am 29.3 WNW 15 - 1002.4 - - - - - - - - -
29/07:00am 29.1 W 15 17 1002.5 - - - - - - - - -
29/06:30am 29.0 WNW 14 16 1001.9 - - - - - - - - -
29/06:15am 29.0 WNW 13 - 1001.4 - - - - - - - - -
29/06:00am 28.9 WNW 15 16 1001.5 - - - - - - - - -
29/05:30am 28.8 WNW 18 21 1001.5 - - - - - - - - -
29/05:15am 28.8 WNW 18 - 1001.2 - - - - - - - - -
29/05:00am 28.8 WNW 18 21 1001.5 - - - - - - - - -
29/04:30am 28.9 WNW 20 23 1001.4 - - - - - - - - -
29/04:15am 29.0 WNW 19 - 1001.0 - - - - - - - - -
29/04:00am 29.0 WNW 20 23 1001.3 - - - - - - - - -
29/03:30am 29.0 WNW 19 23 1001.3 - - - - - - - - -
29/03:15am 28.9 WNW 19 - 1001.0 - - - - - - - - -
29/03:00am 28.9 WNW 20 23 1001.1 - - - - - - - - -
29/02:30am 28.9 WNW 19 22 1001.2 - - - - - - - - -
29/02:15am 28.8 WNW 18 - 1000.9 - - - - - - - - -
29/02:00am 28.7 WNW 20 23 1001.2 - - - - - - - - -
29/01:30am 28.8 WNW 19 22 1001.5 - - - - - - - - -
29/01:15am 28.9 WNW 19 - 1001.5 - - - - - - - - -
29/01:00am 28.8 WNW 19 21 1001.9 - - - - - - - - -
29/12:30am 28.8 WNW 19 22 1002.3 - - - - - - - - -
29/12:15am 28.9 WNW 18 - 1002.1 - - - - - - - - -
29/12:00am 28.9 WNW 17 19 1002.6 - - - - - - - - -
 
Date/Time
EST
Temp

°C
Wind Pressure Rain
since 9am
mm
Weather Cloud Vis
km
Sea
Height
m
Swell
Dir
 
Speed
knots
Gust
knots
hPa Trend Height
m
Period
s
Dir
28/11:30pm 28.9 NW 15 18 1002.5 - - - - - - - - -
28/11:15pm 29.0 WNW 16 - 1002.3 - - - - - - - - -
28/11:00pm 29.0 WNW 15 17 1002.8 - - - - - - - - -
28/10:30pm 28.9 NW 15 16 1003.0 - - - - - - - - -
28/10:15pm 28.9 NW 14 - 1002.7 - - - - - - - - -
28/10:00pm 28.9 NW 14 15 1002.9 - - - - - - - - -
28/09:30pm 28.9 NW 12 14 1002.8 - - - - - - - - -
28/09:15pm 28.9 NW 13 - 1002.5 - - - - - - - - -
28/09:00pm 29.0 WNW 11 13 1002.6 - - - - - - - - -
28/08:30pm 29.0 NW 13 15 1002.4 - - - - - - - - -
28/08:15pm 29.0 WNW 13 - 1002.0 - - - - - - - - -
28/08:00pm 29.1 WNW 13 15 1002.2 - - - - - - - - -
28/07:30pm 29.2 WNW 14 16 1001.7 - - - - - - - - -
28/07:15pm 29.2 WNW 14 - 1001.3 - - - - - - - - -
28/07:00pm 29.4 WNW 14 16 1001.5 - - - - - - - - -
28/06:30pm 29.3 WNW 14 16 1001.1 - - - - - - - - -
28/06:15pm 29.3 WNW 15 - 1000.7 - - - - - - - - -
28/06:00pm 29.3 WNW 14 16 1000.8 - - - - - - - - -
28/05:30pm 29.5 WNW 15 17 1000.3 - - - - - - - - -
28/05:15pm 29.9 W 12 - 1000.0 - - - - - - - - -
28/05:00pm 29.9 W 11 14 1000.1 - - - - - - - - -
28/04:30pm 30.3 W 10 11 999.7 - - - - - - - - -
28/04:15pm 30.2 W 10 - 999.3 - - - - - - - - -
28/04:00pm 29.8 WNW 10 11 999.8 - - - - - - - - -
28/03:30pm 29.6 WNW 11 13 999.9 - - - - - - - - -
28/03:15pm 29.4 WNW 11 - 999.5 - - - - - - - - -
28/03:00pm 29.4 WNW 11 13 999.8 - - - - - - - - -
28/02:30pm 29.4 NW 12 14 1000.1 - - - - - - - - -
28/02:15pm 29.2 NW 11 - 999.8 - - - - - - - - -
28/02:00pm 29.1 NW 12 14 1000.2 - - - - - - - - -
28/01:30pm 29.1 NW 11 13 1000.5 - - - - - - - - -
28/01:15pm 29.1 WNW 12 - 1000.4 - - - - - - - - -
28/01:00pm 29.1 WNW 11 13 1000.8 - - - - - - - - -
28/12:30pm 29.2 WNW 12 14 1001.2 - - - - - - - - -
28/12:15pm 29.2 WNW 11 - 1001.0 - - - - - - - - -
28/12:00pm 29.3 WNW 9 11 1001.6 - - - - - - - - -
28/11:30am 29.0 NW 9 11 1001.9 - - - - - - - - -
28/11:15am 29.2 NW 9 - 1001.7 - - - - - - - - -
28/11:00am 29.0 WNW 9 9 1002.1 - - - - - - - - -
28/10:30am 29.1 WNW 9 10 1002.0 - - - - - - - - -
28/10:15am 28.9 WNW 9 - 1001.7 - - - - - - - - -
28/10:00am 29.0 WNW 9 10 1001.9 - - - - - - - - -
28/09:30am 28.9 WNW 10 13 1002.1 - - - - - - - - -
28/09:15am 28.9 WNW 11 - 1002.0 - - - - - - - - -
28/09:00am 28.8 WNW 11 12 1002.2 - - - - - - - - -
28/08:30am 28.9 W 11 13 1002.0 - - - - - - - - -
28/08:15am 28.9 W 12 - 1001.6 - - - - - - - - -
28/08:00am 28.8 W 12 15 1001.8 - - - - - - - - -
28/07:30am 28.8 W 14 16 1001.7 - - - - - - - - -
28/07:15am 28.7 W 13 - 1001.2 - - - - - - - - -
28/07:00am 28.9 W 13 15 1001.4 - - - - - - - - -
28/06:30am 28.8 W 13 16 1001.3 - - - - - - - - -
28/06:15am 28.8 W 17 - 1000.8 - - - - - - - - -
28/06:00am 28.7 WNW 18 20 1000.9 - - - - - - - - -
28/05:30am 28.8 W 17 19 1000.9 - - - - - - - - -
28/05:15am 28.9 W 17 - 1000.6 - - - - - - - - -
28/05:00am 28.9 W 17 19 1000.8 - - - - - - - - -
28/04:30am 28.8 WNW 16 17 1000.8 - - - - - - - - -
28/04:15am 28.8 WNW 15 - 1000.3 - - - - - - - - -
28/04:00am 28.8 WNW 15 17 1000.5 - - - - - - - - -
28/03:30am 28.7 WNW 16 17 1000.3 - - - - - - - - -
28/03:15am 28.7 WNW 16 - 999.8 - - - - - - - - -
28/03:00am 28.7 WNW 16 19 1000.2 - - - - - - - - -
28/02:30am 28.7 WNW 17 20 1000.3 - - - - - - - - -
28/02:15am 28.8 WNW 18 - 1000.1 - - - - - - - - -
28/02:00am 28.8 WNW 18 21 1000.6 - - - - - - - - -
28/01:30am 28.8 WNW 16 18 1000.8 - - - - - - - - -
28/01:15am 28.7 WNW 17 - 1000.5 - - - - - - - - -
28/01:00am 28.7 WNW 15 19 1001.1 - - - - - - - - -
28/12:30am 28.9 WNW 16 18 1001.8 - - - - - - - - -
28/12:15am 28.9 NW 16 - 1001.7 - - - - - - - - -
28/12:00am 29.0 NW 17 20 1002.2 - - - - - - - - -
 
Date/Time
EST
Temp

°C
Wind Pressure Rain
since 9am
mm
Weather Cloud Vis
km
Sea
Height
m
Swell
Dir
 
Speed
knots
Gust
knots
hPa Trend Height
m
Period
s
Dir
27/11:30pm 28.9 NW 15 17 1002.6 - - - - - - - - -
27/11:15pm 29.0 NW 15 - 1002.6 - - - - - - - - -
27/11:00pm 29.0 NW 16 18 1003.0 - - - - - - - - -
27/10:30pm 29.0 WNW 17 19 1003.3 - - - - - - - - -
27/10:15pm 29.0 WNW 17 - 1003.1 - - - - - - - - -
27/10:00pm 29.0 WNW 15 17 1003.5 - - - - - - - - -
27/09:30pm 29.1 NW 13 15 1003.3 - - - - - - - - -
27/09:15pm 29.2 NW 13 - 1002.9 - - - - - - - - -
27/09:00pm 29.3 NW 13 15 1003.2 - - - - - - - - -
27/08:30pm 29.1 NW 11 13 1002.9 - - - - - - - - -
27/08:15pm 29.2 NW 10 - 1002.6 - - - - - - - - -
27/08:00pm 29.2 NW 9 10 1002.7 - - - - - - - - -
27/07:30pm 29.2 WNW 9 9 1002.4 - - - - - - - - -
27/07:15pm 29.0 WNW 9 - 1002.0 - - - - - - - - -
27/07:00pm 29.2 WNW 10 11 1002.2 - - - - - - - - -
27/06:30pm 29.1 WNW 11 12 1001.9 - - - - - - - - -
27/06:15pm 29.3 WNW 12 - 1001.4 - - - - - - - - -
27/06:00pm 29.1 WNW 11 13 1001.4 - - - - - - - - -
27/05:30pm 29.1 WNW 11 13 1001.2 - - - - - - - - -
27/05:15pm 29.2 WNW 12 - 1000.7 - - - - - - - - -
27/05:00pm 29.3 WNW 12 13 1000.7 - - - - - - - - -
27/04:30pm 29.3 WNW 12 13 1000.6 - - - - - - - - -
27/04:15pm 29.3 WNW 13 - 1000.3 - - - - - - - - -
27/04:00pm 29.4 WNW 12 14 1000.7 - - - - - - - - -
27/03:30pm 29.5 W 13 15 1001.0 - - - - - - - - -
27/03:15pm 29.5 WNW 12 - 1000.8 - - - - - - - - -
27/03:00pm 29.4 WNW 13 15 1001.6 - - - - - - - - -
27/02:30pm 29.5 W 13 15 1001.7 - - - - - - - - -
27/02:15pm 29.3 W 13 - 1001.3 - - - - - - - - -
27/02:00pm 29.4 W 12 14 1001.8 - - - - - - - - -
27/01:30pm 29.2 W 11 12 1002.2 - - - - - - - - -
27/01:15pm 29.2 W 11 - 1002.1 - - - - - - - - -
27/01:00pm 29.3 W 11 12 1002.5 - - - - - - - - -
27/12:30pm 29.1 WSW 10 11 1002.6 - - - - - - - - -
27/12:15pm 29.4 W 10 - 1002.5 - - - - - - - - -
27/12:00pm 29.4 W 9 11 1002.6 - - - - - - - - -
27/11:30am 29.2 W 13 15 1002.9 - - - - - - - - -
27/11:15am 29.0 WNW 13 - 1002.7 - - - - - - - - -
27/11:00am 29.1 W 12 14 1003.2 - - - - - - - - -
27/10:30am 29.6 W 8 11 1003.4 - - - - - - - - -
27/10:15am 29.4 W 7 - 1003.1 - - - - - - - - -
27/10:00am 29.5 WSW 8 9 1003.7 - - - - - - - - -
27/09:30am 29.4 WSW 10 11 1004.2 - - - - - - - - -
27/09:15am 29.3 WSW 9 - 1003.8 - - - - - - - - -
27/09:00am 29.2 WSW 9 10 1003.9 - - - - - - - - -
27/08:30am 29.1 WSW 10 11 1003.8 - - - - - - - - -
27/08:15am 29.0 WSW 10 - 1003.5 - - - - - - - - -
27/08:00am 28.9 WSW 10 11 1003.8 - - - - - - - - -
27/07:30am 28.7 WSW 10 11 1003.7 - - - - - - - - -
27/07:15am 28.7 WSW 11 - 1003.2 - - - - - - - - -
27/07:00am 28.7 SW 9 11 1003.4 - - - - - - - - -
27/06:30am 28.9 SW 11 13 1003.2 - - - - - - - - -
27/06:15am 28.8 SW 12 - 1002.8 - - - - - - - - -
27/06:00am 28.6 SW 13 15 1002.8 - - - - - - - - -
27/05:30am 28.9 WSW 13 15 1002.3 - - - - - - - - -
27/05:15am 28.8 W 14 - 1001.9 - - - - - - - - -
27/05:00am 28.7 W 13 16 1002.0 - - - - - - - - -
27/04:30am 28.7 W 12 15 1002.0 - - - - - - - - -
27/04:15am 28.8 W 14 - 1001.9 - - - - - - - - -
27/04:00am 28.8 W 16 18 1002.5 - - - - - - - - -
27/03:30am 29.1 W 19 22 1002.7 - - - - - - - - -
27/03:15am 29.1 W 20 - 1002.6 - - - - - - - - -
27/03:00am 29.1 W 20 23 1003.1 - - - - - - - - -
27/02:30am 29.2 W 19 22 1003.2 - - - - - - - - -
27/02:15am 29.1 W 18 - 1003.2 - - - - - - - - -
27/02:00am 29.1 W 19 22 1003.6 - - - - - - - - -
27/01:30am 29.1 W 20 23 1003.7 - - - - - - - - -
27/01:15am 29.0 W 18 - 1003.5 - - - - - - - - -
27/01:00am 29.1 W 18 22 1003.8 - - - - - - - - -
27/12:30am 29.0 W 16 19 1004.4 - - - - - - - - -
27/12:15am 29.1 WNW 16 - 1004.5 - - - - - - - - -
27/12:00am 29.2 WNW 16 19 1005.0 - - - - - - - - -
 
Date/Time
EST
Temp

°C
Wind Pressure Rain
since 9am
mm
Weather Cloud Vis
km
Sea
Height
m
Swell
Dir
 
Speed
knots
Gust
knots
hPa Trend Height
m
Period
s
Dir
26/11:30pm 29.2 WNW 16 19 1005.2 - - - - - - - - -
26/11:15pm 29.1 WNW 17 - 1004.9 - - - - - - - - -
26/11:00pm 29.1 WNW 16 18 1005.2 - - - - - - - - -
26/10:30pm 29.1 WNW 16 19 1005.1 - - - - - - - - -
26/10:15pm 29.0 WNW 15 - 1004.9 - - - - - - - - -
26/10:00pm 29.0 WNW 15 17 1005.2 - - - - - - - - -
26/09:30pm 28.9 WNW 15 16 1004.8 - - - - - - - - -
26/09:15pm 28.9 WNW 14 - 1004.5 - - - - - - - - -
26/09:00pm 28.9 WNW 14 16 1004.8 - - - - - - - - -
26/08:30pm 29.0 WNW 13 15 1004.7 - - - - - - - - -
26/08:15pm 28.8 WNW 12 - 1004.1 - - - - - - - - -
26/08:00pm 29.0 WNW 12 14 1004.3 - - - - - - - - -
26/07:30pm 29.1 WNW 11 13 1004.1 - - - - - - - - -
26/07:15pm 29.0 WNW 11 - 1003.6 - - - - - - - - -
26/07:00pm 29.1 WNW 11 13 1003.9 - - - - - - - - -
26/06:30pm 29.1 WNW 10 11 1003.5 - - - - - - - - -
26/06:15pm 29.2 NW 10 - 1003.1 - - - - - - - - -
26/06:00pm 29.2 WNW 10 12 1003.4 - - - - - - - - -
26/05:30pm 29.6 WNW 9 10 1003.3 - - - - - - - - -
26/05:15pm 29.5 WNW 9 - 1002.9 - - - - - - - - -
26/05:00pm 29.7 WNW 10 11 1003.2 - - - - - - - - -
26/04:30pm 30.0 W 9 11 1003.2 - - - - - - - - -
26/04:15pm 29.8 W 11 - 1003.0 - - - - - - - - -

Other Formats:

Comma delimited format used in spreadsheet applications
http://www.bom.gov.au/fwo/IDQ60701/IDQ60701.94289.axf

JavaScript Object Notation format (JSON) in row-major order
http://www.bom.gov.au/fwo/IDQ60701/IDQ60701.94289.json